createdAt,value
2017-11-03T00:03:47.635Z,93.90
2017-11-03T00:08:51.041Z,93.80
2017-11-03T00:13:57.438Z,93.80
2017-11-03T00:19:00.432Z,93.80
2017-11-03T00:24:06.359Z,93.70
2017-11-03T00:29:08.947Z,93.70
2017-11-03T00:34:13.190Z,93.60
2017-11-03T00:39:15.867Z,93.70
2017-11-03T00:44:19.362Z,93.70
2017-11-03T00:49:22.748Z,93.50
2017-11-03T00:54:25.841Z,93.50
2017-11-03T00:59:28.505Z,93.50
2017-11-03T01:04:31.611Z,93.50
2017-11-03T01:09:35.003Z,93.50
2017-11-03T01:14:38.496Z,93.50
2017-11-03T01:19:41.148Z,93.40
2017-11-03T01:24:45.401Z,93.30
2017-11-03T01:29:48.182Z,93.30
2017-11-03T01:34:51.937Z,92.50
2017-11-03T01:39:54.556Z,92.50
2017-11-03T01:44:58.120Z,92.50
2017-11-03T01:50:01.542Z,92.10
2017-11-03T01:55:04.305Z,92.10
2017-11-03T02:00:06.907Z,92.30
2017-11-03T02:05:09.866Z,92.60
2017-11-03T02:10:12.441Z,92.80
2017-11-03T02:15:16.609Z,92.70
2017-11-03T02:20:19.319Z,92.70
2017-11-03T02:25:22.395Z,92.70
2017-11-03T02:30:25.980Z,92.80
2017-11-03T02:35:28.955Z,92.80
2017-11-03T02:40:31.655Z,92.40
2017-11-03T02:45:34.837Z,92.00
2017-11-03T02:50:37.539Z,92.10
2017-11-03T02:55:40.951Z,92.40
2017-11-03T03:00:44.461Z,92.50
2017-11-03T03:05:48.272Z,92.50
2017-11-03T03:10:50.906Z,92.40
2017-11-03T03:15:54.376Z,92.60
2017-11-03T03:20:56.994Z,92.70
2017-11-03T03:25:59.630Z,92.80
2017-11-03T03:31:02.269Z,92.90
2017-11-03T03:36:04.941Z,93.10
2017-11-03T03:41:07.566Z,93.20
2017-11-03T03:46:10.938Z,93.40
2017-11-03T03:51:13.564Z,93.40
2017-11-03T03:56:16.348Z,93.30
2017-11-03T04:01:18.976Z,93.20
2017-11-03T04:06:22.406Z,93.00
2017-11-03T04:11:25.021Z,92.50
2017-11-03T04:16:28.357Z,92.50
2017-11-03T04:21:30.989Z,92.50
2017-11-03T04:26:33.729Z,92.60
2017-11-03T04:31:37.115Z,92.70
2017-11-03T04:36:40.576Z,92.70
2017-11-03T04:41:43.968Z,92.70
2017-11-03T04:46:47.157Z,92.70
2017-11-03T04:51:49.784Z,92.50
2017-11-03T04:56:54.842Z,92.10
2017-11-03T05:01:57.450Z,92.00
2017-11-03T05:07:00.721Z,92.10
2017-11-03T05:12:03.318Z,91.90
2017-11-03T05:17:06.090Z,91.70
2017-11-03T05:22:08.720Z,91.60
2017-11-03T05:27:11.701Z,91.30
2017-11-03T05:32:14.336Z,91.20
2017-11-03T05:37:17.720Z,91.40
2017-11-03T05:42:20.304Z,91.30
2017-11-03T05:47:24.442Z,91.30
2017-11-03T05:52:27.067Z,91.20
2017-11-03T05:57:29.940Z,91.30
2017-11-03T06:02:33.383Z,91.70
2017-11-03T06:07:36.701Z,91.70
2017-11-03T06:12:39.323Z,91.80
2017-11-03T06:17:42.790Z,92.00
2017-11-03T06:22:46.173Z,91.90
2017-11-03T06:27:49.329Z,91.90
2017-11-03T06:32:51.954Z,91.70
2017-11-03T06:37:54.744Z,91.80
2017-11-03T06:42:57.357Z,91.90
2017-11-03T06:48:00.231Z,91.90
2017-11-03T06:53:02.860Z,91.90
2017-11-03T06:58:05.531Z,91.90
2017-11-03T07:03:08.155Z,91.90
2017-11-03T07:08:11.236Z,92.00
2017-11-03T07:13:13.805Z,92.00
2017-11-03T07:18:16.422Z,91.90
2017-11-03T07:23:19.811Z,91.90
2017-11-03T07:28:22.877Z,91.90
2017-11-03T07:33:25.464Z,91.90
2017-11-03T07:38:28.687Z,91.90
2017-11-03T07:43:31.338Z,92.00
2017-11-03T07:48:35.275Z,91.70
2017-11-03T07:53:38.661Z,92.00
2017-11-03T07:58:41.921Z,91.90
2017-11-03T08:03:44.529Z,91.90
2017-11-03T08:08:47.153Z,91.50
2017-11-03T08:13:49.763Z,91.50
2017-11-03T08:18:52.740Z,91.60
2017-11-03T08:23:55.390Z,91.40
2017-11-03T08:28:58.683Z,91.10
2017-11-03T08:34:01.307Z,91.10
2017-11-03T08:39:04.133Z,90.10
2017-11-03T08:44:07.546Z,90.20
2017-11-03T08:49:13.371Z,90.10
2017-11-03T08:54:16.003Z,90.10
2017-11-03T08:59:18.862Z,88.90
2017-11-03T09:04:21.487Z,88.70
2017-11-03T09:09:24.260Z,87.40
2017-11-03T09:14:26.844Z,87.50
2017-11-03T09:19:29.682Z,87.50
2017-11-03T09:24:32.325Z,86.00
2017-11-03T09:29:35.755Z,85.90
2017-11-03T09:34:38.350Z,85.80
2017-11-03T09:39:41.020Z,85.70
2017-11-03T09:44:43.643Z,86.00
2017-11-03T09:49:47.214Z,85.50
2017-11-03T09:54:49.861Z,84.90
2017-11-03T09:59:53.467Z,83.70
2017-11-03T10:04:56.868Z,83.90
2017-11-03T10:09:59.869Z,83.90
2017-11-03T10:15:02.504Z,83.30
2017-11-03T10:20:06.342Z,83.40
2017-11-03T10:25:08.944Z,83.40
2017-11-03T10:30:11.652Z,83.10
2017-11-03T10:35:14.273Z,82.30
2017-11-03T10:40:17.165Z,84.30
2017-11-03T10:45:19.834Z,82.00
2017-11-03T10:50:24.003Z,81.80
2017-11-03T10:55:26.594Z,82.00
2017-11-03T11:00:29.567Z,81.20
2017-11-03T11:05:32.962Z,81.80
2017-11-03T11:10:36.516Z,81.80
2017-11-03T11:15:39.183Z,82.20
2017-11-03T11:20:41.789Z,82.80
2017-11-03T11:25:44.392Z,82.60
2017-11-03T11:30:48.372Z,81.70
2017-11-03T11:35:50.996Z,81.60
2017-11-03T11:40:53.771Z,82.20
2017-11-03T11:45:56.408Z,82.20
2017-11-03T11:50:59.302Z,81.60
2017-11-03T11:56:01.885Z,81.80
2017-11-03T12:01:05.104Z,81.70
2017-11-03T12:06:07.687Z,81.70
2017-11-03T12:11:11.064Z,82.80
2017-11-03T12:16:14.463Z,82.80
2017-11-03T12:21:18.042Z,82.80
2017-11-03T12:26:20.744Z,83.40
2017-11-03T12:31:24.318Z,82.50
2017-11-03T12:36:27.702Z,81.60
2017-11-03T12:41:30.371Z,81.50
2017-11-03T12:46:32.995Z,80.20
2017-11-03T12:51:35.647Z,80.70
2017-11-03T12:56:38.338Z,80.20
2017-11-03T13:01:41.810Z,80.20
2017-11-03T13:06:44.432Z,80.20
2017-11-03T13:11:47.399Z,79.10
2017-11-03T13:16:49.996Z,79.90
2017-11-03T13:21:53.455Z,79.60
2017-11-03T13:26:57.187Z,79.70
2017-11-03T13:32:01.187Z,80.20
2017-11-03T13:37:03.817Z,80.20
2017-11-03T13:42:07.952Z,80.80
2017-11-03T13:47:11.346Z,80.50
2017-11-03T13:52:14.251Z,80.40
2017-11-03T13:57:16.840Z,80.80
2017-11-03T14:02:20.429Z,80.40
2017-11-03T14:07:23.107Z,80.80
2017-11-03T14:12:26.300Z,80.40
2017-11-03T14:17:29.680Z,79.20
2017-11-03T14:22:32.560Z,79.20
2017-11-03T14:27:35.240Z,78.60
2017-11-03T14:32:38.409Z,78.40
2017-11-03T14:37:41.029Z,79.10
2017-11-03T14:42:43.984Z,79.70
2017-11-03T14:47:46.593Z,79.60
2017-11-03T14:52:49.347Z,80.30
2017-11-03T14:57:52.726Z,80.90
2017-11-03T15:02:55.609Z,80.90
2017-11-03T15:07:58.261Z,80.50
2017-11-03T15:13:02.203Z,82.40
2017-11-03T15:18:05.583Z,82.90
2017-11-03T15:23:08.429Z,82.80
2017-11-03T15:28:11.012Z,83.70
2017-11-03T15:33:14.829Z,84.80
2017-11-03T15:38:17.450Z,84.80
2017-11-03T15:43:20.277Z,85.70
2017-11-03T15:48:23.266Z,87.40
2017-11-03T15:53:26.267Z,87.70
2017-11-03T15:58:29.305Z,90.00
2017-11-03T16:03:33.006Z,90.50
2017-11-03T16:08:35.697Z,90.60
2017-11-03T16:13:38.345Z,90.90
2017-11-03T16:18:40.989Z,91.20
2017-11-03T16:23:45.007Z,91.70
2017-11-03T16:28:48.352Z,92.20
2017-11-03T16:33:51.810Z,91.90
2017-11-03T16:38:54.400Z,92.20
2017-11-03T16:43:57.441Z,92.30
2017-11-03T16:49:00.037Z,92.40
2017-11-03T16:54:02.891Z,92.60
2017-11-03T16:59:05.531Z,92.50
2017-11-03T17:04:09.179Z,92.60
2017-11-03T17:09:12.731Z,92.70
2017-11-03T17:14:15.528Z,92.70
2017-11-03T17:19:18.115Z,92.80
2017-11-03T17:24:21.119Z,92.80
2017-11-03T17:29:24.125Z,92.90
2017-11-03T17:34:28.156Z,93.10
2017-11-03T17:39:30.820Z,93.10
2017-11-03T17:44:33.793Z,93.40
2017-11-03T17:49:36.565Z,93.30
2017-11-03T17:54:42.563Z,93.50
2017-11-03T17:59:45.187Z,93.40
2017-11-03T18:04:48.768Z,93.50
2017-11-03T18:09:51.377Z,93.50
2017-11-03T18:14:54.571Z,93.80
2017-11-03T18:19:57.239Z,93.90
2017-11-03T18:24:59.978Z,94.00
2017-11-03T18:30:02.708Z,93.80
2017-11-03T18:35:06.120Z,93.90
2017-11-03T18:40:09.200Z,93.90
2017-11-03T18:45:18.555Z,94.00
2017-11-03T18:50:21.155Z,93.90
2017-11-03T18:55:24.623Z,94.10
2017-11-03T19:00:27.380Z,94.10
2017-11-03T19:05:33.248Z,94.00
2017-11-03T19:10:36.760Z,93.90
2017-11-03T19:15:39.815Z,93.90
2017-11-03T19:20:42.424Z,93.60
2017-11-03T19:25:45.403Z,93.60
2017-11-03T19:30:48.237Z,93.70
2017-11-03T19:35:51.760Z,93.80
2017-11-03T19:40:54.409Z,94.10
2017-11-03T19:45:57.207Z,94.50
2017-11-03T19:51:00.040Z,94.20
2017-11-03T19:56:03.361Z,94.60
2017-11-03T20:01:06.093Z,94.50
2017-11-03T20:06:11.085Z,93.80
2017-11-03T20:11:14.251Z,93.80
2017-11-03T20:16:17.926Z,93.80
2017-11-03T20:21:35.962Z,93.80
2017-11-03T20:26:39.776Z,93.90
2017-11-03T20:31:42.512Z,93.80
2017-11-03T20:36:45.711Z,93.90
2017-11-03T20:41:48.556Z,93.90
2017-11-03T20:46:51.522Z,94.00
2017-11-03T20:51:55.148Z,94.00
2017-11-03T20:56:58.672Z,94.00
2017-11-03T21:02:01.368Z,94.00
2017-11-03T21:07:04.887Z,94.10
2017-11-03T21:12:07.559Z,94.00
2017-11-03T21:17:10.339Z,94.00
2017-11-03T21:22:12.975Z,94.30
2017-11-03T21:27:17.084Z,94.40
2017-11-03T21:32:19.833Z,94.40
2017-11-03T21:37:22.707Z,94.10
2017-11-03T21:42:26.133Z,94.40
2017-11-03T21:47:29.127Z,94.10
2017-11-03T21:52:32.681Z,94.30
2017-11-03T21:57:35.430Z,94.30
2017-11-03T22:02:38.054Z,94.40
2017-11-03T22:07:42.399Z,94.50
2017-11-03T22:12:45.025Z,94.40
2017-11-03T22:17:47.921Z,94.10
2017-11-03T22:22:50.667Z,94.10
2017-11-03T22:27:53.839Z,94.10
2017-11-03T22:32:56.497Z,94.30
2017-11-03T22:37:59.326Z,94.50
2017-11-03T22:43:02.778Z,94.80
2017-11-03T22:48:06.460Z,94.80
2017-11-03T22:53:10.631Z,95.00
2017-11-03T22:58:14.480Z,94.90
2017-11-03T23:03:17.226Z,94.90
2017-11-03T23:08:26.594Z,94.90
2017-11-03T23:13:29.333Z,94.80
2017-11-03T23:18:32.886Z,94.80
2017-11-03T23:23:36.165Z,94.70
2017-11-03T23:28:40.134Z,94.80
2017-11-03T23:33:42.795Z,94.80
2017-11-03T23:38:46.777Z,94.70
2017-11-03T23:43:53.615Z,94.70
2017-11-03T23:48:58.947Z,94.70
2017-11-03T23:54:01.978Z,94.70
2017-11-03T23:59:06.408Z,94.70
